Aviation Digital Data Service (ADDS)

Output produced by METARs form (2020 UTC 25 April 2018)
found at http://aviationweather.gov/adds/metars/
 
METAR text: KMCC 252010Z AUTO 32003KT 10SM CLR 24/10 A3001 RMK AO2
Conditions at: KMCC (MCCLELLAN AFB , CA, US) observed 2010 UTC 25 April 2018
Temperature: 24.0°C (75°F)
Dewpoint: 10.0°C (50°F) [RH = 41%]
Pressure (altimeter): 30.01 inches Hg (1016.3 mb)
Winds: from the NW (320 degrees) at 3 MPH (3 knots; 1.6 m/s)
Visibility: 10 or more miles (16+ km)
Ceiling: at least 12,000 feet AGL
Clouds: sky clear below 12,000 feet AGL
Weather: automated observation with no human augmentation;
there may or may not be significant weather present at this time